sensor_id;sensor_type;location;lat;lon;timestamp;pressure;altitude;pressure_sealevel;temperature
75658;BMP280;64255;49.892;17.884;2023-03-21T00:00:59;98739.16;;;8.31
75658;BMP280;64255;49.892;17.884;2023-03-21T00:03:27;98733.81;;;8.22
75658;BMP280;64255;49.892;17.884;2023-03-21T00:05:55;98733.38;;;8.23
75658;BMP280;64255;49.892;17.884;2023-03-21T00:08:24;98733.31;;;8.14
75658;BMP280;64255;49.892;17.884;2023-03-21T00:11:01;98736.59;;;8.09
75658;BMP280;64255;49.892;17.884;2023-03-21T00:13:29;98740.31;;;8.21
75658;BMP280;64255;49.892;17.884;2023-03-21T00:16:14;98733.88;;;8.00
75658;BMP280;64255;49.892;17.884;2023-03-21T00:18:48;98730.81;;;8.11
75658;BMP280;64255;49.892;17.884;2023-03-21T00:21:19;98745.13;;;7.72
75658;BMP280;64255;49.892;17.884;2023-03-21T00:23:47;98739.47;;;7.92
75658;BMP280;64255;49.892;17.884;2023-03-21T00:26:14;98731.84;;;8.13
75658;BMP280;64255;49.892;17.884;2023-03-21T00:28:43;98739.66;;;8.07
75658;BMP280;64255;49.892;17.884;2023-03-21T00:31:10;98741.59;;;8.07
75658;BMP280;64255;49.892;17.884;2023-03-21T00:33:38;98741.03;;;7.81
75658;BMP280;64255;49.892;17.884;2023-03-21T00:36:08;98747.28;;;7.87
75658;BMP280;64255;49.892;17.884;2023-03-21T00:38:36;98750.66;;;8.10
75658;BMP280;64255;49.892;17.884;2023-03-21T00:41:11;98745.28;;;8.00
75658;BMP280;64255;49.892;17.884;2023-03-21T00:43:38;98747.56;;;7.57
75658;BMP280;64255;49.892;17.884;2023-03-21T00:46:06;98760.31;;;7.18
75658;BMP280;64255;49.892;17.884;2023-03-21T00:48:34;98753.88;;;7.06
75658;BMP280;64255;49.892;17.884;2023-03-21T00:51:01;98756.28;;;7.58
75658;BMP280;64255;49.892;17.884;2023-03-21T00:53:28;98750.09;;;7.17
75658;BMP280;64255;49.892;17.884;2023-03-21T00:55:56;98748.63;;;6.16
75658;BMP280;64255;49.892;17.884;2023-03-21T00:58:23;98748.00;;;6.25
75658;BMP280;64255;49.892;17.884;2023-03-21T01:00:50;98741.84;;;6.89
75658;BMP280;64255;49.892;17.884;2023-03-21T01:03:18;98751.72;;;6.66
75658;BMP280;64255;49.892;17.884;2023-03-21T01:05:47;98754.84;;;7.22
75658;BMP280;64255;49.892;17.884;2023-03-21T01:08:17;98752.81;;;7.26
75658;BMP280;64255;49.892;17.884;2023-03-21T01:10:47;98748.25;;;7.49
75658;BMP280;64255;49.892;17.884;2023-03-21T01:13:18;98753.78;;;7.32
75658;BMP280;64255;49.892;17.884;2023-03-21T01:15:50;98741.56;;;7.44
75658;BMP280;64255;49.892;17.884;2023-03-21T01:18:22;98746.38;;;7.36
75658;BMP280;64255;49.892;17.884;2023-03-21T01:20:49;98752.88;;;7.35
75658;BMP280;64255;49.892;17.884;2023-03-21T01:23:17;98738.22;;;7.31
75658;BMP280;64255;49.892;17.884;2023-03-21T01:25:47;98740.09;;;7.21
75658;BMP280;64255;49.892;17.884;2023-03-21T01:28:15;98737.50;;;7.30
75658;BMP280;64255;49.892;17.884;2023-03-21T01:30:49;98740.72;;;7.34
75658;BMP280;64255;49.892;17.884;2023-03-21T01:33:19;98732.94;;;7.40
75658;BMP280;64255;49.892;17.884;2023-03-21T01:35:47;98735.66;;;7.27
75658;BMP280;64255;49.892;17.884;2023-03-21T01:38:15;98730.88;;;7.22
75658;BMP280;64255;49.892;17.884;2023-03-21T01:40:45;98731.03;;;7.18
75658;BMP280;64255;49.892;17.884;2023-03-21T01:43:24;98735.72;;;7.14
75658;BMP280;64255;49.892;17.884;2023-03-21T01:46:25;98722.94;;;7.09
75658;BMP280;64255;49.892;17.884;2023-03-21T01:49:01;98731.50;;;7.04
75658;BMP280;64255;49.892;17.884;2023-03-21T01:51:32;98724.59;;;7.06
75658;BMP280;64255;49.892;17.884;2023-03-21T01:54:00;98721.91;;;7.06
75658;BMP280;64255;49.892;17.884;2023-03-21T01:56:35;98725.81;;;7.15
75658;BMP280;64255;49.892;17.884;2023-03-21T01:59:18;98723.16;;;7.15
75658;BMP280;64255;49.892;17.884;2023-03-21T02:01:48;98718.78;;;7.21
75658;BMP280;64255;49.892;17.884;2023-03-21T02:04:18;98726.06;;;7.30
75658;BMP280;64255;49.892;17.884;2023-03-21T02:06:58;98711.59;;;7.31
75658;BMP280;64255;49.892;17.884;2023-03-21T02:09:32;98714.41;;;7.36
75658;BMP280;64255;49.892;17.884;2023-03-21T02:12:00;98708.34;;;7.36
75658;BMP280;64255;49.892;17.884;2023-03-21T02:14:31;98709.25;;;7.33
75658;BMP280;64255;49.892;17.884;2023-03-21T02:17:19;98709.34;;;7.29
75658;BMP280;64255;49.892;17.884;2023-03-21T02:26:18;98713.88;;;7.19
75658;BMP280;64255;49.892;17.884;2023-03-21T02:28:52;98705.66;;;7.26
75658;BMP280;64255;49.892;17.884;2023-03-21T02:31:41;98708.84;;;7.21
75658;BMP280;64255;49.892;17.884;2023-03-21T02:37:38;98707.50;;;7.17
75658;BMP280;64255;49.892;17.884;2023-03-21T02:40:09;98707.50;;;7.17
75658;BMP280;64255;49.892;17.884;2023-03-21T02:46:04;98705.16;;;7.19
75658;BMP280;64255;49.892;17.884;2023-03-21T02:48:50;98706.84;;;7.13
75658;BMP280;64255;49.892;17.884;2023-03-21T02:51:23;98703.56;;;7.08
75658;BMP280;64255;49.892;17.884;2023-03-21T02:54:04;98700.31;;;7.04
75658;BMP280;64255;49.892;17.884;2023-03-21T02:56:35;98702.38;;;7.09
75658;BMP280;64255;49.892;17.884;2023-03-21T02:59:06;98702.28;;;7.13
75658;BMP280;64255;49.892;17.884;2023-03-21T03:01:34;98704.63;;;7.11
75658;BMP280;64255;49.892;17.884;2023-03-21T03:04:01;98707.72;;;7.09
75658;BMP280;64255;49.892;17.884;2023-03-21T03:10:02;98702.50;;;7.19
75658;BMP280;64255;49.892;17.884;2023-03-21T03:13:14;98698.50;;;7.23
75658;BMP280;64255;49.892;17.884;2023-03-21T03:19:14;98708.13;;;7.21
75658;BMP280;64255;49.892;17.884;2023-03-21T03:21:56;98704.72;;;7.20
75658;BMP280;64255;49.892;17.884;2023-03-21T03:24:44;98710.47;;;7.19
75658;BMP280;64255;49.892;17.884;2023-03-21T03:27:35;98710.28;;;7.13
75658;BMP280;64255;49.892;17.884;2023-03-21T03:30:05;98720.81;;;7.17
75658;BMP280;64255;49.892;17.884;2023-03-21T03:32:45;98712.38;;;7.18
75658;BMP280;64255;49.892;17.884;2023-03-21T03:35:17;98713.31;;;7.24
75658;BMP280;64255;49.892;17.884;2023-03-21T03:37:52;98718.03;;;7.20
75658;BMP280;64255;49.892;17.884;2023-03-21T03:40:49;98714.50;;;7.23
75658;BMP280;64255;49.892;17.884;2023-03-21T03:43:33;98714.31;;;7.18
75658;BMP280;64255;49.892;17.884;2023-03-21T03:46:38;98707.31;;;6.98
75658;BMP280;64255;49.892;17.884;2023-03-21T03:49:25;98695.84;;;7.01
75658;BMP280;64255;49.892;17.884;2023-03-21T03:52:02;98679.75;;;7.05
75658;BMP280;64255;49.892;17.884;2023-03-21T03:54:42;98686.31;;;7.13
75658;BMP280;64255;49.892;17.884;2023-03-21T03:57:11;98691.63;;;7.13
75658;BMP280;64255;49.892;17.884;2023-03-21T03:59:44;98698.88;;;7.13
75658;BMP280;64255;49.892;17.884;2023-03-21T04:02:13;98697.63;;;7.04
75658;BMP280;64255;49.892;17.884;2023-03-21T04:04:40;98691.00;;;7.09
75658;BMP280;64255;49.892;17.884;2023-03-21T04:07:08;98693.97;;;7.11
75658;BMP280;64255;49.892;17.884;2023-03-21T04:09:36;98693.81;;;7.05
75658;BMP280;64255;49.892;17.884;2023-03-21T04:12:03;98689.97;;;7.06
75658;BMP280;64255;49.892;17.884;2023-03-21T04:14:31;98692.19;;;7.08
75658;BMP280;64255;49.892;17.884;2023-03-21T04:16:58;98692.63;;;7.06
75658;BMP280;64255;49.892;17.884;2023-03-21T04:19:26;98699.72;;;7.09
75658;BMP280;64255;49.892;17.884;2023-03-21T04:21:53;98692.06;;;7.11
75658;BMP280;64255;49.892;17.884;2023-03-21T04:24:20;98691.88;;;7.06
75658;BMP280;64255;49.892;17.884;2023-03-21T04:26:47;98690.25;;;7.08
75658;BMP280;64255;49.892;17.884;2023-03-21T04:29:15;98693.97;;;7.11
75658;BMP280;64255;49.892;17.884;2023-03-21T04:31:42;98691.72;;;7.09
75658;BMP280;64255;49.892;17.884;2023-03-21T04:34:09;98694.22;;;7.04
75658;BMP280;64255;49.892;17.884;2023-03-21T04:36:37;98685.94;;;7.02
75658;BMP280;64255;49.892;17.884;2023-03-21T04:39:05;98691.69;;;7.00
75658;BMP280;64255;49.892;17.884;2023-03-21T04:41:33;98689.34;;;7.02
75658;BMP280;64255;49.892;17.884;2023-03-21T04:44:00;98685.81;;;7.05
75658;BMP280;64255;49.892;17.884;2023-03-21T04:46:27;98695.84;;;7.01
75658;BMP280;64255;49.892;17.884;2023-03-21T04:48:55;98692.19;;;7.08
75658;BMP280;64255;49.892;17.884;2023-03-21T04:51:22;98680.03;;;7.20
75658;BMP280;64255;49.892;17.884;2023-03-21T04:53:49;98683.84;;;7.19
75658;BMP280;64255;49.892;17.884;2023-03-21T04:56:16;98686.53;;;7.19
75658;BMP280;64255;49.892;17.884;2023-03-21T04:58:44;98685.34;;;7.20
75658;BMP280;64255;49.892;17.884;2023-03-21T05:01:11;98693.00;;;7.18
75658;BMP280;64255;49.892;17.884;2023-03-21T05:03:39;98686.84;;;7.21
75658;BMP280;64255;49.892;17.884;2023-03-21T05:06:08;98693.91;;;7.24
75658;BMP280;64255;49.892;17.884;2023-03-21T05:08:36;98683.66;;;7.13
75658;BMP280;64255;49.892;17.884;2023-03-21T05:11:04;98680.66;;;7.33
75658;BMP280;64255;49.892;17.884;2023-03-21T05:13:32;98685.75;;;7.18
75658;BMP280;64255;49.892;17.884;2023-03-21T05:15:59;98682.53;;;7.23
75658;BMP280;64255;49.892;17.884;2023-03-21T05:18:26;98691.63;;;7.35
75658;BMP280;64255;49.892;17.884;2023-03-21T05:20:56;98673.41;;;7.34
75658;BMP280;64255;49.892;17.884;2023-03-21T05:23:23;98678.91;;;7.30
75658;BMP280;64255;49.892;17.884;2023-03-21T05:25:50;98673.72;;;7.36
75658;BMP280;64255;49.892;17.884;2023-03-21T05:28:17;98686.94;;;7.39
75658;BMP280;64255;49.892;17.884;2023-03-21T05:30:45;98682.50;;;7.46
75658;BMP280;64255;49.892;17.884;2023-03-21T05:33:13;98686.06;;;7.42
75658;BMP280;64255;49.892;17.884;2023-03-21T05:35:40;98684.34;;;7.58
75658;BMP280;64255;49.892;17.884;2023-03-21T05:38:08;98688.66;;;7.55
75658;BMP280;64255;49.892;17.884;2023-03-21T05:40:35;98688.94;;;7.57
75658;BMP280;64255;49.892;17.884;2023-03-21T05:43:02;98685.28;;;7.64
75658;BMP280;64255;49.892;17.884;2023-03-21T05:45:29;98685.97;;;7.78
75658;BMP280;64255;49.892;17.884;2023-03-21T05:47:57;98692.19;;;7.84
75658;BMP280;64255;49.892;17.884;2023-03-21T05:50:24;98690.28;;;7.94
75658;BMP280;64255;49.892;17.884;2023-03-21T05:52:51;98699.75;;;8.26
75658;BMP280;64255;49.892;17.884;2023-03-21T05:55:19;98691.38;;;8.05
75658;BMP280;64255;49.892;17.884;2023-03-21T05:57:46;98695.56;;;8.16
75658;BMP280;64255;49.892;17.884;2023-03-21T06:00:14;98686.66;;;8.19
75658;BMP280;64255;49.892;17.884;2023-03-21T06:02:43;98687.84;;;8.18
75658;BMP280;64255;49.892;17.884;2023-03-21T06:05:10;98697.66;;;8.30
75658;BMP280;64255;49.892;17.884;2023-03-21T06:07:38;98700.13;;;8.15
75658;BMP280;64255;49.892;17.884;2023-03-21T06:10:06;98696.47;;;8.13
75658;BMP280;64255;49.892;17.884;2023-03-21T06:12:33;98705.34;;;8.19
75658;BMP280;64255;49.892;17.884;2023-03-21T06:15:01;98703.16;;;8.36
75658;BMP280;64255;49.892;17.884;2023-03-21T06:17:28;98700.78;;;8.29
75658;BMP280;64255;49.892;17.884;2023-03-21T06:19:56;98702.56;;;8.32
75658;BMP280;64255;49.892;17.884;2023-03-21T06:22:23;98710.03;;;8.46
75658;BMP280;64255;49.892;17.884;2023-03-21T06:24:50;98717.31;;;8.73
75658;BMP280;64255;49.892;17.884;2023-03-21T06:27:17;98714.94;;;8.66
75658;BMP280;64255;49.892;17.884;2023-03-21T06:29:45;98728.88;;;8.70
75658;BMP280;64255;49.892;17.884;2023-03-21T06:32:12;98740.72;;;8.69
75658;BMP280;64255;49.892;17.884;2023-03-21T06:34:39;98744.44;;;8.53
75658;BMP280;64255;49.892;17.884;2023-03-21T06:37:07;98742.06;;;8.55
75658;BMP280;64255;49.892;17.884;2023-03-21T06:39:35;98741.03;;;8.62
75658;BMP280;64255;49.892;17.884;2023-03-21T06:42:03;98745.31;;;8.60
75658;BMP280;64255;49.892;17.884;2023-03-21T06:44:30;98738.78;;;8.61
75658;BMP280;64255;49.892;17.884;2023-03-21T06:46:57;98751.06;;;8.49
75658;BMP280;64255;49.892;17.884;2023-03-21T06:49:25;98753.47;;;8.56
75658;BMP280;64255;49.892;17.884;2023-03-21T06:51:52;98754.06;;;8.60
75658;BMP280;64255;49.892;17.884;2023-03-21T06:54:20;98752.44;;;8.72
75658;BMP280;64255;49.892;17.884;2023-03-21T06:56:47;98752.88;;;8.52
75658;BMP280;64255;49.892;17.884;2023-03-21T06:59:15;98750.09;;;8.65
75658;BMP280;64255;49.892;17.884;2023-03-21T07:01:43;98757.22;;;8.77
75658;BMP280;64255;49.892;17.884;2023-03-21T07:04:10;98754.69;;;8.73
75658;BMP280;64255;49.892;17.884;2023-03-21T07:06:37;98771.03;;;8.76
75658;BMP280;64255;49.892;17.884;2023-03-21T07:09:05;98766.69;;;8.69
75658;BMP280;64255;49.892;17.884;2023-03-21T07:11:35;98765.78;;;8.72
75658;BMP280;64255;49.892;17.884;2023-03-21T07:14:03;98768.50;;;8.81
75658;BMP280;64255;49.892;17.884;2023-03-21T07:16:31;98767.47;;;8.88
75658;BMP280;64255;49.892;17.884;2023-03-21T07:18:58;98782.88;;;9.02
75658;BMP280;64255;49.892;17.884;2023-03-21T07:21:26;98779.03;;;8.94
75658;BMP280;64255;49.892;17.884;2023-03-21T07:23:53;98780.84;;;8.97
75658;BMP280;64255;49.892;17.884;2023-03-21T07:26:20;98779.63;;;8.98
75658;BMP280;64255;49.892;17.884;2023-03-21T07:28:47;98778.59;;;8.96
75658;BMP280;64255;49.892;17.884;2023-03-21T07:31:16;98780.97;;;8.94
75658;BMP280;64255;49.892;17.884;2023-03-21T07:33:43;98779.78;;;9.04
75658;BMP280;64255;49.892;17.884;2023-03-21T07:36:13;98783.19;;;8.95
75658;BMP280;64255;49.892;17.884;2023-03-21T07:38:43;98786.31;;;8.94
75658;BMP280;64255;49.892;17.884;2023-03-21T07:41:11;98789.72;;;8.94
75658;BMP280;64255;49.892;17.884;2023-03-21T07:43:39;98785.69;;;8.99
75658;BMP280;64255;49.892;17.884;2023-03-21T07:46:07;98795.06;;;9.03
75658;BMP280;64255;49.892;17.884;2023-03-21T07:48:34;98779.94;;;9.10
75658;BMP280;64255;49.892;17.884;2023-03-21T07:51:01;98781.72;;;9.13
75658;BMP280;64255;49.892;17.884;2023-03-21T07:53:28;98774.31;;;9.17
75658;BMP280;64255;49.892;17.884;2023-03-21T07:55:56;98770.59;;;9.23
75658;BMP280;64255;49.892;17.884;2023-03-21T07:58:24;98780.09;;;9.15
75658;BMP280;64255;49.892;17.884;2023-03-21T08:00:53;98781.72;;;9.31
75658;BMP280;64255;49.892;17.884;2023-03-21T08:03:20;98776.34;;;9.41
75658;BMP280;64255;49.892;17.884;2023-03-21T08:05:47;98777.53;;;9.49
75658;BMP280;64255;49.892;17.884;2023-03-21T08:08:15;98780.06;;;9.43
75658;BMP280;64255;49.892;17.884;2023-03-21T08:10:42;98777.25;;;9.47
75658;BMP280;64255;49.892;17.884;2023-03-21T08:13:10;98783.19;;;9.32
75658;BMP280;64255;49.892;17.884;2023-03-21T08:15:38;98789.38;;;9.66
75658;BMP280;64255;49.892;17.884;2023-03-21T08:18:05;98785.22;;;9.56
75658;BMP280;64255;49.892;17.884;2023-03-21T08:20:33;98783.31;;;9.47
75658;BMP280;64255;49.892;17.884;2023-03-21T08:23:00;98791.06;;;9.54
75658;BMP280;64255;49.892;17.884;2023-03-21T08:25:28;98781.81;;;9.55
75658;BMP280;64255;49.892;17.884;2023-03-21T08:27:55;98785.09;;;9.60
75658;BMP280;64255;49.892;17.884;2023-03-21T08:30:27;98788.78;;;9.71
75658;BMP280;64255;49.892;17.884;2023-03-21T08:32:59;98789.09;;;9.64
75658;BMP280;64255;49.892;17.884;2023-03-21T08:35:28;98783.78;;;9.55
75658;BMP280;64255;49.892;17.884;2023-03-21T08:37:56;98793.84;;;9.69
75658;BMP280;64255;49.892;17.884;2023-03-21T08:40:23;98795.75;;;9.78
75658;BMP280;64255;49.892;17.884;2023-03-21T08:42:50;98801.97;;;9.75
75658;BMP280;64255;49.892;17.884;2023-03-21T08:45:17;98796.38;;;9.64
75658;BMP280;64255;49.892;17.884;2023-03-21T08:47:45;98804.50;;;9.79
75658;BMP280;64255;49.892;17.884;2023-03-21T08:50:17;98799.47;;;9.62
75658;BMP280;64255;49.892;17.884;2023-03-21T08:52:45;98798.78;;;9.52
75658;BMP280;64255;49.892;17.884;2023-03-21T08:55:14;98798.63;;;9.47
75658;BMP280;64255;49.892;17.884;2023-03-21T08:57:42;98791.06;;;9.36
75658;BMP280;64255;49.892;17.884;2023-03-21T09:00:14;98797.28;;;9.33
75658;BMP280;64255;49.892;17.884;2023-03-21T09:02:44;98794.63;;;9.42
75658;BMP280;64255;49.892;17.884;2023-03-21T09:05:12;98801.59;;;9.30
75658;BMP280;64255;49.892;17.884;2023-03-21T09:07:40;98797.44;;;9.29
75658;BMP280;64255;49.892;17.884;2023-03-21T09:10:16;98805.16;;;9.36
75658;BMP280;64255;49.892;17.884;2023-03-21T09:12:44;98806.03;;;9.43
75658;BMP280;64255;49.892;17.884;2023-03-21T09:15:12;98809.59;;;9.39
75658;BMP280;64255;49.892;17.884;2023-03-21T09:17:40;98810.19;;;9.53
75658;BMP280;64255;49.892;17.884;2023-03-21T09:20:12;98822.06;;;9.70
75658;BMP280;64255;49.892;17.884;2023-03-21T09:22:40;98819.94;;;9.84
75658;BMP280;64255;49.892;17.884;2023-03-21T09:25:07;98820.94;;;9.96
75658;BMP280;64255;49.892;17.884;2023-03-21T09:27:35;98820.09;;;9.80
75658;BMP280;64255;49.892;17.884;2023-03-21T09:30:01;98813.09;;;9.83
75658;BMP280;64255;49.892;17.884;2023-03-21T09:32:29;98816.66;;;9.89
75658;BMP280;64255;49.892;17.884;2023-03-21T09:34:56;98821.72;;;9.78
75658;BMP280;64255;49.892;17.884;2023-03-21T09:37:23;98820.25;;;9.77
75658;BMP280;64255;49.892;17.884;2023-03-21T09:39:50;98819.09;;;9.68
75658;BMP280;64255;49.892;17.884;2023-03-21T09:45:47;98825.63;;;9.67
75658;BMP280;64255;49.892;17.884;2023-03-21T09:48:42;98826.22;;;9.62
75658;BMP280;64255;49.892;17.884;2023-03-21T09:51:16;98825.91;;;9.69
75658;BMP280;64255;49.892;17.884;2023-03-21T09:53:48;98830.66;;;9.65
75658;BMP280;64255;49.892;17.884;2023-03-21T09:56:17;98824.72;;;9.61
75658;BMP280;64255;49.892;17.884;2023-03-21T09:58:53;98818.97;;;9.53
75658;BMP280;64255;49.892;17.884;2023-03-21T10:01:27;98819.69;;;9.54
75658;BMP280;64255;49.892;17.884;2023-03-21T10:04:00;98814.94;;;9.39
75658;BMP280;64255;49.892;17.884;2023-03-21T10:06:29;98812.84;;;9.71
75658;BMP280;64255;49.892;17.884;2023-03-21T10:11:46;98814.44;;;9.87
75658;BMP280;64255;49.892;17.884;2023-03-21T10:14:29;98806.59;;;9.65
75658;BMP280;64255;49.892;17.884;2023-03-21T10:17:19;98810.47;;;9.74
75658;BMP280;64255;49.892;17.884;2023-03-21T10:20:18;98807.31;;;9.84
75658;BMP280;64255;49.892;17.884;2023-03-21T10:22:50;98802.97;;;9.96
75658;BMP280;64255;49.892;17.884;2023-03-21T10:25:30;98802.78;;;10.09
75658;BMP280;64255;49.892;17.884;2023-03-21T10:28:00;98802.88;;;10.24
75658;BMP280;64255;49.892;17.884;2023-03-21T10:30:52;98807.38;;;10.18
75658;BMP280;64255;49.892;17.884;2023-03-21T10:33:35;98799.22;;;10.36
75658;BMP280;64255;49.892;17.884;2023-03-21T10:36:26;98804.53;;;10.46
75658;BMP280;64255;49.892;17.884;2023-03-21T10:39:05;98806.38;;;10.40
75658;BMP280;64255;49.892;17.884;2023-03-21T10:41:33;98800.66;;;10.95
75658;BMP280;64255;49.892;17.884;2023-03-21T10:44:15;98805.81;;;10.60
75658;BMP280;64255;49.892;17.884;2023-03-21T10:47:05;98814.53;;;10.69
75658;BMP280;64255;49.892;17.884;2023-03-21T10:49:36;98803.25;;;10.65
75658;BMP280;64255;49.892;17.884;2023-03-21T10:52:18;98804.78;;;10.81
75658;BMP280;64255;49.892;17.884;2023-03-21T10:54:46;98808.28;;;10.87
75658;BMP280;64255;49.892;17.884;2023-03-21T10:57:25;98805.41;;;10.76
75658;BMP280;64255;49.892;17.884;2023-03-21T11:00:00;98799.03;;;10.74
75658;BMP280;64255;49.892;17.884;2023-03-21T11:02:36;98810.59;;;10.80
75658;BMP280;64255;49.892;17.884;2023-03-21T11:05:21;98798.97;;;10.83
75658;BMP280;64255;49.892;17.884;2023-03-21T11:08:18;98805.91;;;10.90
75658;BMP280;64255;49.892;17.884;2023-03-21T11:11:03;98801.50;;;10.86
75658;BMP280;64255;49.892;17.884;2023-03-21T11:13:44;98808.66;;;10.56
75658;BMP280;64255;49.892;17.884;2023-03-21T11:16:44;98802.13;;;10.57
75658;BMP280;64255;49.892;17.884;2023-03-21T11:19:29;98803.53;;;10.43
75658;BMP280;64255;49.892;17.884;2023-03-21T11:22:03;98809.03;;;10.40
75658;BMP280;64255;49.892;17.884;2023-03-21T11:24:33;98810.38;;;10.44
75658;BMP280;64255;49.892;17.884;2023-03-21T11:27:06;98808.22;;;10.24
75658;BMP280;64255;49.892;17.884;2023-03-21T11:29:38;98808.78;;;10.28
75658;BMP280;64255;49.892;17.884;2023-03-21T11:32:18;98802.19;;;10.38
75658;BMP280;64255;49.892;17.884;2023-03-21T11:40:25;98805.66;;;9.96
75658;BMP280;64255;49.892;17.884;2023-03-21T11:42:58;98795.28;;;9.89
75658;BMP280;64255;49.892;17.884;2023-03-21T11:45:35;98794.50;;;9.98
75658;BMP280;64255;49.892;17.884;2023-03-21T11:48:12;98793.75;;;9.97
75658;BMP280;64255;49.892;17.884;2023-03-21T11:50:45;98802.09;;;9.90
75658;BMP280;64255;49.892;17.884;2023-03-21T11:56:46;98797.22;;;10.22
75658;BMP280;64255;49.892;17.884;2023-03-21T12:02:07;98792.25;;;10.05
75658;BMP280;64255;49.892;17.884;2023-03-21T12:04:41;98799.34;;;10.18
75658;BMP280;64255;49.892;17.884;2023-03-21T12:07:26;98788.50;;;10.12
75658;BMP280;64255;49.892;17.884;2023-03-21T12:13:24;98783.69;;;9.92
75658;BMP280;64255;49.892;17.884;2023-03-21T12:19:07;98792.94;;;10.15
75658;BMP280;64255;49.892;17.884;2023-03-21T12:24:49;98787.75;;;10.12
75658;BMP280;64255;49.892;17.884;2023-03-21T12:37:04;98776.66;;;9.95
75658;BMP280;64255;49.892;17.884;2023-03-21T12:39:39;98776.06;;;9.48
75658;BMP280;64255;49.892;17.884;2023-03-21T12:42:08;98771.75;;;9.50
75658;BMP280;64255;49.892;17.884;2023-03-21T12:44:50;98765.34;;;9.38
75658;BMP280;64255;49.892;17.884;2023-03-21T12:47:29;98771.91;;;9.19
75658;BMP280;64255;49.892;17.884;2023-03-21T12:50:26;98763.59;;;9.26
75658;BMP280;64255;49.892;17.884;2023-03-21T12:53:29;98760.94;;;9.07
75658;BMP280;64255;49.892;17.884;2023-03-21T12:56:08;98761.41;;;9.15
75658;BMP280;64255;49.892;17.884;2023-03-21T12:58:53;98757.69;;;9.13
75658;BMP280;64255;49.892;17.884;2023-03-21T13:01:24;98755.88;;;9.28
75658;BMP280;64255;49.892;17.884;2023-03-21T13:06:37;98764.19;;;9.30
75658;BMP280;64255;49.892;17.884;2023-03-21T13:09:30;98754.56;;;9.23
75658;BMP280;64255;49.892;17.884;2023-03-21T13:15:25;98755.13;;;9.09
75658;BMP280;64255;49.892;17.884;2023-03-21T13:18:30;98748.94;;;8.94
75658;BMP280;64255;49.892;17.884;2023-03-21T13:30:01;98742.09;;;9.11
75658;BMP280;64255;49.892;17.884;2023-03-21T13:32:39;98740.59;;;9.19
75658;BMP280;64255;49.892;17.884;2023-03-21T13:35:23;98732.75;;;9.16
75658;BMP280;64255;49.892;17.884;2023-03-21T13:38:05;98731.72;;;9.13
75658;BMP280;64255;49.892;17.884;2023-03-21T13:41:04;98722.97;;;9.13
75658;BMP280;64255;49.892;17.884;2023-03-21T13:46:34;98732.09;;;9.49
75658;BMP280;64255;49.892;17.884;2023-03-21T13:49:24;98728.38;;;9.46
75658;BMP280;64255;49.892;17.884;2023-03-21T13:51:56;98728.25;;;9.41
75658;BMP280;64255;49.892;17.884;2023-03-21T13:54:55;98717.81;;;9.61
75658;BMP280;64255;49.892;17.884;2023-03-21T14:00:28;98719.59;;;9.64
75658;BMP280;64255;49.892;17.884;2023-03-21T14:03:05;98715.28;;;9.58
75658;BMP280;64255;49.892;17.884;2023-03-21T14:05:33;98717.22;;;9.57
75658;BMP280;64255;49.892;17.884;2023-03-21T14:08:05;98709.63;;;9.55
75658;BMP280;64255;49.892;17.884;2023-03-21T14:10:41;98708.81;;;9.83
75658;BMP280;64255;49.892;17.884;2023-03-21T14:13:18;98701.72;;;9.80
75658;BMP280;64255;49.892;17.884;2023-03-21T14:15:53;98705.53;;;9.88
75658;BMP280;64255;49.892;17.884;2023-03-21T14:18:26;98699.09;;;9.61
75658;BMP280;64255;49.892;17.884;2023-03-21T14:20:58;98697.75;;;9.66
75658;BMP280;64255;49.892;17.884;2023-03-21T14:23:25;98691.41;;;9.54
75658;BMP280;64255;49.892;17.884;2023-03-21T14:25:52;98702.06;;;9.73
75658;BMP280;64255;49.892;17.884;2023-03-21T14:28:25;98691.34;;;9.73
75658;BMP280;64255;49.892;17.884;2023-03-21T14:30:58;98690.34;;;9.61
75658;BMP280;64255;49.892;17.884;2023-03-21T14:33:38;98698.78;;;9.68
75658;BMP280;64255;49.892;17.884;2023-03-21T14:36:13;98692.84;;;9.64
75658;BMP280;64255;49.892;17.884;2023-03-21T14:38:42;98697.34;;;9.58
75658;BMP280;64255;49.892;17.884;2023-03-21T14:41:27;98697.63;;;9.51
75658;BMP280;64255;49.892;17.884;2023-03-21T14:46:43;98694.66;;;9.58
75658;BMP280;64255;49.892;17.884;2023-03-21T14:49:35;98695.72;;;9.51
75658;BMP280;64255;49.892;17.884;2023-03-21T14:52:11;98692.16;;;9.54
75658;BMP280;64255;49.892;17.884;2023-03-21T14:54:44;98693.06;;;9.51
75658;BMP280;64255;49.892;17.884;2023-03-21T14:57:29;98680.28;;;9.46
75658;BMP280;64255;49.892;17.884;2023-03-21T15:00:02;98689.00;;;9.56
75658;BMP280;64255;49.892;17.884;2023-03-21T15:02:39;98691.59;;;9.75
75658;BMP280;64255;49.892;17.884;2023-03-21T15:05:24;98681.13;;;9.62
75658;BMP280;64255;49.892;17.884;2023-03-21T15:07:58;98681.88;;;9.62
75658;BMP280;64255;49.892;17.884;2023-03-21T15:10:29;98684.75;;;9.83
75658;BMP280;64255;49.892;17.884;2023-03-21T15:13:00;98684.66;;;9.68
75658;BMP280;64255;49.892;17.884;2023-03-21T15:15:31;98682.44;;;9.66
75658;BMP280;64255;49.892;17.884;2023-03-21T15:18:05;98680.41;;;9.52
75658;BMP280;64255;49.892;17.884;2023-03-21T15:20:36;98683.41;;;9.54
75658;BMP280;64255;49.892;17.884;2023-03-21T15:23:33;98678.34;;;9.47
75658;BMP280;64255;49.892;17.884;2023-03-21T15:26:04;98668.25;;;9.51
75658;BMP280;64255;49.892;17.884;2023-03-21T15:28:34;98663.53;;;9.46
75658;BMP280;64255;49.892;17.884;2023-03-21T15:31:02;98660.88;;;9.46
75658;BMP280;64255;49.892;17.884;2023-03-21T15:33:31;98663.50;;;9.55
75658;BMP280;64255;49.892;17.884;2023-03-21T15:35:59;98662.78;;;9.45
75658;BMP280;64255;49.892;17.884;2023-03-21T15:38:39;98665.16;;;9.43
75658;BMP280;64255;49.892;17.884;2023-03-21T15:44:33;98660.38;;;9.47
75658;BMP280;64255;49.892;17.884;2023-03-21T15:46:46;98660.09;;;9.45
75658;BMP280;64255;49.892;17.884;2023-03-21T15:51:50;98658.78;;;9.41
75658;BMP280;64255;49.892;17.884;2023-03-21T15:54:56;98660.25;;;9.42
75658;BMP280;64255;49.892;17.884;2023-03-21T15:57:29;98653.56;;;9.46
75658;BMP280;64255;49.892;17.884;2023-03-21T16:02:41;98657.13;;;9.43
75658;BMP280;64255;49.892;17.884;2023-03-21T16:05:41;98645.75;;;9.33
75658;BMP280;64255;49.892;17.884;2023-03-21T16:08:17;98647.66;;;9.33